sensor_id;sensor_type;location;lat;lon;timestamp;temperature;humidity
21648;DHT22;10985;54.182;7.890;2023-03-31T00:01:19;8.50;99.90
21648;DHT22;10985;54.182;7.890;2023-03-31T00:03:45;8.60;99.90
21648;DHT22;10985;54.182;7.890;2023-03-31T00:06:12;8.50;99.90
21648;DHT22;10985;54.182;7.890;2023-03-31T00:08:42;8.50;99.90
21648;DHT22;10985;54.182;7.890;2023-03-31T00:11:08;8.60;99.90
21648;DHT22;10985;54.182;7.890;2023-03-31T00:13:34;8.60;99.90
21648;DHT22;10985;54.182;7.890;2023-03-31T00:16:02;8.60;99.90
21648;DHT22;10985;54.182;7.890;2023-03-31T00:18:28;8.60;99.90
21648;DHT22;10985;54.182;7.890;2023-03-31T00:21:05;8.60;99.90
21648;DHT22;10985;54.182;7.890;2023-03-31T00:23:31;8.60;99.90
21648;DHT22;10985;54.182;7.890;2023-03-31T00:25:56;8.60;99.90
21648;DHT22;10985;54.182;7.890;2023-03-31T00:28:22;8.60;99.90
21648;DHT22;10985;54.182;7.890;2023-03-31T00:30:48;8.50;99.90
21648;DHT22;10985;54.182;7.890;2023-03-31T00:33:13;8.60;99.90
21648;DHT22;10985;54.182;7.890;2023-03-31T00:35:39;8.60;99.90
21648;DHT22;10985;54.182;7.890;2023-03-31T00:38:05;8.60;99.90
21648;DHT22;10985;54.182;7.890;2023-03-31T00:40:34;8.60;99.90
21648;DHT22;10985;54.182;7.890;2023-03-31T00:42:59;8.60;99.90
21648;DHT22;10985;54.182;7.890;2023-03-31T00:45:29;8.60;99.90
21648;DHT22;10985;54.182;7.890;2023-03-31T00:48:07;8.60;99.90
21648;DHT22;10985;54.182;7.890;2023-03-31T00:50:41;8.60;99.90
21648;DHT22;10985;54.182;7.890;2023-03-31T00:53:12;8.60;99.90
21648;DHT22;10985;54.182;7.890;2023-03-31T00:55:45;8.60;99.90
21648;DHT22;10985;54.182;7.890;2023-03-31T00:58:13;8.60;99.90
21648;DHT22;10985;54.182;7.890;2023-03-31T01:00:45;8.60;99.90
21648;DHT22;10985;54.182;7.890;2023-03-31T01:03:12;8.60;99.90
21648;DHT22;10985;54.182;7.890;2023-03-31T01:06:02;8.60;99.90
21648;DHT22;10985;54.182;7.890;2023-03-31T01:08:30;8.60;99.90
21648;DHT22;10985;54.182;7.890;2023-03-31T01:10:59;8.60;99.90
21648;DHT22;10985;54.182;7.890;2023-03-31T01:13:26;8.50;99.90
21648;DHT22;10985;54.182;7.890;2023-03-31T01:15:53;8.50;99.90
21648;DHT22;10985;54.182;7.890;2023-03-31T01:18:18;8.50;99.90
21648;DHT22;10985;54.182;7.890;2023-03-31T01:23:40;8.50;99.90
21648;DHT22;10985;54.182;7.890;2023-03-31T01:40:12;8.50;99.90
21648;DHT22;10985;54.182;7.890;2023-03-31T01:45:31;8.40;99.90
21648;DHT22;10985;54.182;7.890;2023-03-31T01:48:12;8.50;99.90
21648;DHT22;10985;54.182;7.890;2023-03-31T01:50:43;8.50;99.90
21648;DHT22;10985;54.182;7.890;2023-03-31T01:53:30;8.50;99.90
21648;DHT22;10985;54.182;7.890;2023-03-31T01:56:20;8.40;99.90
21648;DHT22;10985;54.182;7.890;2023-03-31T01:58:53;8.40;99.90
21648;DHT22;10985;54.182;7.890;2023-03-31T02:01:46;8.40;99.90
21648;DHT22;10985;54.182;7.890;2023-03-31T02:04:22;8.40;99.90
21648;DHT22;10985;54.182;7.890;2023-03-31T02:06:56;8.40;99.90
21648;DHT22;10985;54.182;7.890;2023-03-31T02:09:34;8.40;99.90
21648;DHT22;10985;54.182;7.890;2023-03-31T02:12:04;8.40;99.90
21648;DHT22;10985;54.182;7.890;2023-03-31T02:14:33;8.40;99.90
21648;DHT22;10985;54.182;7.890;2023-03-31T02:17:01;8.30;99.90
21648;DHT22;10985;54.182;7.890;2023-03-31T02:19:34;8.30;99.90
21648;DHT22;10985;54.182;7.890;2023-03-31T02:22:03;8.30;99.90
21648;DHT22;10985;54.182;7.890;2023-03-31T02:24:30;8.30;99.90
21648;DHT22;10985;54.182;7.890;2023-03-31T02:27:21;8.30;99.90
21648;DHT22;10985;54.182;7.890;2023-03-31T02:29:49;8.40;99.90
21648;DHT22;10985;54.182;7.890;2023-03-31T02:32:24;8.30;99.90
21648;DHT22;10985;54.182;7.890;2023-03-31T02:34:53;8.30;99.90
21648;DHT22;10985;54.182;7.890;2023-03-31T02:37:19;8.40;99.90
21648;DHT22;10985;54.182;7.890;2023-03-31T02:39:48;8.40;99.90
21648;DHT22;10985;54.182;7.890;2023-03-31T02:42:14;8.40;99.90
21648;DHT22;10985;54.182;7.890;2023-03-31T02:44:40;8.40;99.90
21648;DHT22;10985;54.182;7.890;2023-03-31T02:47:08;8.40;99.90
21648;DHT22;10985;54.182;7.890;2023-03-31T02:49:36;8.40;99.90
21648;DHT22;10985;54.182;7.890;2023-03-31T02:55:19;8.40;99.90
21648;DHT22;10985;54.182;7.890;2023-03-31T02:58:12;8.40;99.90
21648;DHT22;10985;54.182;7.890;2023-03-31T03:00:52;8.40;99.90
21648;DHT22;10985;54.182;7.890;2023-03-31T03:06:18;8.40;99.90
21648;DHT22;10985;54.182;7.890;2023-03-31T03:09:10;8.40;99.90
21648;DHT22;10985;54.182;7.890;2023-03-31T03:14:36;8.40;99.90
21648;DHT22;10985;54.182;7.890;2023-03-31T03:17:14;8.40;99.90
21648;DHT22;10985;54.182;7.890;2023-03-31T03:19:41;8.30;99.90
21648;DHT22;10985;54.182;7.890;2023-03-31T03:22:07;8.30;99.90
21648;DHT22;10985;54.182;7.890;2023-03-31T03:24:33;8.30;99.90
21648;DHT22;10985;54.182;7.890;2023-03-31T03:26:59;8.30;99.90
21648;DHT22;10985;54.182;7.890;2023-03-31T03:29:25;8.30;99.90
21648;DHT22;10985;54.182;7.890;2023-03-31T03:31:51;8.30;99.90
21648;DHT22;10985;54.182;7.890;2023-03-31T03:34:17;8.30;99.90
21648;DHT22;10985;54.182;7.890;2023-03-31T03:36:45;8.20;99.90
21648;DHT22;10985;54.182;7.890;2023-03-31T03:39:11;8.20;99.90
21648;DHT22;10985;54.182;7.890;2023-03-31T03:41:36;8.20;99.90
21648;DHT22;10985;54.182;7.890;2023-03-31T03:44:02;8.20;99.90
21648;DHT22;10985;54.182;7.890;2023-03-31T03:46:28;8.20;99.90
21648;DHT22;10985;54.182;7.890;2023-03-31T03:48:53;8.20;99.90
21648;DHT22;10985;54.182;7.890;2023-03-31T03:51:20;8.20;99.90
21648;DHT22;10985;54.182;7.890;2023-03-31T03:53:45;8.30;99.90
21648;DHT22;10985;54.182;7.890;2023-03-31T03:56:11;8.20;99.90
21648;DHT22;10985;54.182;7.890;2023-03-31T03:58:36;8.20;99.90
21648;DHT22;10985;54.182;7.890;2023-03-31T04:01:02;8.20;99.90
21648;DHT22;10985;54.182;7.890;2023-03-31T04:03:28;8.20;99.90
21648;DHT22;10985;54.182;7.890;2023-03-31T04:05:54;8.20;99.90
21648;DHT22;10985;54.182;7.890;2023-03-31T04:08:19;8.20;99.90
21648;DHT22;10985;54.182;7.890;2023-03-31T04:10:45;8.20;99.90
21648;DHT22;10985;54.182;7.890;2023-03-31T04:13:22;8.20;99.90
21648;DHT22;10985;54.182;7.890;2023-03-31T04:15:47;8.20;99.90
21648;DHT22;10985;54.182;7.890;2023-03-31T04:18:13;8.20;99.90
21648;DHT22;10985;54.182;7.890;2023-03-31T04:20:49;8.20;99.90
21648;DHT22;10985;54.182;7.890;2023-03-31T04:23:20;8.20;99.90
21648;DHT22;10985;54.182;7.890;2023-03-31T04:25:49;8.30;99.90
21648;DHT22;10985;54.182;7.890;2023-03-31T04:28:14;8.20;99.90
21648;DHT22;10985;54.182;7.890;2023-03-31T04:30:40;8.20;99.90
21648;DHT22;10985;54.182;7.890;2023-03-31T04:33:05;8.20;99.90
21648;DHT22;10985;54.182;7.890;2023-03-31T04:35:31;8.20;99.90
21648;DHT22;10985;54.182;7.890;2023-03-31T04:38:17;8.20;99.90
21648;DHT22;10985;54.182;7.890;2023-03-31T04:40:52;8.20;99.90
21648;DHT22;10985;54.182;7.890;2023-03-31T04:43:19;8.20;99.90
21648;DHT22;10985;54.182;7.890;2023-03-31T04:45:45;8.20;99.90
21648;DHT22;10985;54.182;7.890;2023-03-31T04:48:11;8.20;99.90
21648;DHT22;10985;54.182;7.890;2023-03-31T04:50:37;8.20;99.90
21648;DHT22;10985;54.182;7.890;2023-03-31T04:53:03;8.20;99.90
21648;DHT22;10985;54.182;7.890;2023-03-31T04:57:57;8.10;99.90
21648;DHT22;10985;54.182;7.890;2023-03-31T05:00:23;8.20;99.90
21648;DHT22;10985;54.182;7.890;2023-03-31T05:02:48;8.10;99.90
21648;DHT22;10985;54.182;7.890;2023-03-31T05:05:14;8.20;99.90
21648;DHT22;10985;54.182;7.890;2023-03-31T05:07:40;8.10;99.90
21648;DHT22;10985;54.182;7.890;2023-03-31T05:10:06;8.10;99.90
21648;DHT22;10985;54.182;7.890;2023-03-31T05:12:35;8.10;99.90
21648;DHT22;10985;54.182;7.890;2023-03-31T05:15:02;8.10;99.90
21648;DHT22;10985;54.182;7.890;2023-03-31T05:17:30;8.10;99.90
21648;DHT22;10985;54.182;7.890;2023-03-31T05:19:57;8.10;99.90
21648;DHT22;10985;54.182;7.890;2023-03-31T05:22:22;8.10;99.90
21648;DHT22;10985;54.182;7.890;2023-03-31T05:24:48;8.10;99.90
21648;DHT22;10985;54.182;7.890;2023-03-31T05:27:14;8.10;99.90
21648;DHT22;10985;54.182;7.890;2023-03-31T05:29:40;8.10;99.90
21648;DHT22;10985;54.182;7.890;2023-03-31T05:32:05;8.10;99.90
21648;DHT22;10985;54.182;7.890;2023-03-31T05:34:31;8.10;99.90
21648;DHT22;10985;54.182;7.890;2023-03-31T05:36:56;8.20;99.90
21648;DHT22;10985;54.182;7.890;2023-03-31T05:39:22;8.20;99.90
21648;DHT22;10985;54.182;7.890;2023-03-31T05:41:48;8.20;99.90
21648;DHT22;10985;54.182;7.890;2023-03-31T05:44:14;8.20;99.90
21648;DHT22;10985;54.182;7.890;2023-03-31T05:46:39;8.20;99.90
21648;DHT22;10985;54.182;7.890;2023-03-31T05:49:05;8.30;99.90
21648;DHT22;10985;54.182;7.890;2023-03-31T05:51:31;8.20;99.90
21648;DHT22;10985;54.182;7.890;2023-03-31T05:53:57;8.20;99.90
21648;DHT22;10985;54.182;7.890;2023-03-31T05:56:22;8.30;99.90
21648;DHT22;10985;54.182;7.890;2023-03-31T05:58:48;8.30;99.90
21648;DHT22;10985;54.182;7.890;2023-03-31T06:01:15;8.30;99.90
21648;DHT22;10985;54.182;7.890;2023-03-31T06:03:44;8.30;99.90
21648;DHT22;10985;54.182;7.890;2023-03-31T06:06:10;8.30;99.90
21648;DHT22;10985;54.182;7.890;2023-03-31T06:08:39;8.30;99.90
21648;DHT22;10985;54.182;7.890;2023-03-31T06:11:11;8.30;99.90
21648;DHT22;10985;54.182;7.890;2023-03-31T06:13:38;8.30;99.90
21648;DHT22;10985;54.182;7.890;2023-03-31T06:16:04;8.30;99.90
21648;DHT22;10985;54.182;7.890;2023-03-31T06:18:31;8.40;99.90
21648;DHT22;10985;54.182;7.890;2023-03-31T06:20:57;8.40;99.90
21648;DHT22;10985;54.182;7.890;2023-03-31T06:23:24;8.40;99.90
21648;DHT22;10985;54.182;7.890;2023-03-31T06:25:50;8.50;99.90
21648;DHT22;10985;54.182;7.890;2023-03-31T06:28:16;8.50;99.90
21648;DHT22;10985;54.182;7.890;2023-03-31T06:30:42;8.50;99.90
21648;DHT22;10985;54.182;7.890;2023-03-31T06:33:08;8.50;99.90
21648;DHT22;10985;54.182;7.890;2023-03-31T06:35:37;8.60;99.90
21648;DHT22;10985;54.182;7.890;2023-03-31T06:38:02;8.60;99.90
21648;DHT22;10985;54.182;7.890;2023-03-31T06:40:28;8.60;99.90
21648;DHT22;10985;54.182;7.890;2023-03-31T06:42:53;8.60;99.90
21648;DHT22;10985;54.182;7.890;2023-03-31T06:45:19;8.60;99.90
21648;DHT22;10985;54.182;7.890;2023-03-31T06:47:45;8.60;99.90
21648;DHT22;10985;54.182;7.890;2023-03-31T06:50:10;8.60;99.90
21648;DHT22;10985;54.182;7.890;2023-03-31T06:52:36;8.60;99.90
21648;DHT22;10985;54.182;7.890;2023-03-31T06:55:02;8.60;99.90
21648;DHT22;10985;54.182;7.890;2023-03-31T06:57:28;8.60;99.90
21648;DHT22;10985;54.182;7.890;2023-03-31T06:59:54;8.60;99.90
21648;DHT22;10985;54.182;7.890;2023-03-31T07:02:20;8.70;99.90
21648;DHT22;10985;54.182;7.890;2023-03-31T07:04:45;8.70;99.90
21648;DHT22;10985;54.182;7.890;2023-03-31T07:07:11;8.70;99.90
21648;DHT22;10985;54.182;7.890;2023-03-31T07:09:36;8.70;99.90
21648;DHT22;10985;54.182;7.890;2023-03-31T07:12:02;8.70;99.90
21648;DHT22;10985;54.182;7.890;2023-03-31T07:14:30;8.70;99.90
21648;DHT22;10985;54.182;7.890;2023-03-31T07:16:56;8.70;99.90
21648;DHT22;10985;54.182;7.890;2023-03-31T07:19:21;8.80;99.90
21648;DHT22;10985;54.182;7.890;2023-03-31T07:21:47;8.80;99.90
21648;DHT22;10985;54.182;7.890;2023-03-31T07:24:13;8.80;99.90
21648;DHT22;10985;54.182;7.890;2023-03-31T07:26:38;8.80;99.90
21648;DHT22;10985;54.182;7.890;2023-03-31T07:29:04;8.80;99.90
21648;DHT22;10985;54.182;7.890;2023-03-31T07:31:30;8.80;99.90
21648;DHT22;10985;54.182;7.890;2023-03-31T07:33:55;8.80;99.90
21648;DHT22;10985;54.182;7.890;2023-03-31T07:36:21;8.80;99.90
21648;DHT22;10985;54.182;7.890;2023-03-31T07:38:46;8.90;99.90
21648;DHT22;10985;54.182;7.890;2023-03-31T07:41:15;8.80;99.90
21648;DHT22;10985;54.182;7.890;2023-03-31T07:43:41;8.90;99.90
21648;DHT22;10985;54.182;7.890;2023-03-31T07:46:16;8.90;99.90
21648;DHT22;10985;54.182;7.890;2023-03-31T07:48:42;8.90;99.90
21648;DHT22;10985;54.182;7.890;2023-03-31T07:51:08;8.90;99.90
21648;DHT22;10985;54.182;7.890;2023-03-31T07:53:34;8.80;99.90
21648;DHT22;10985;54.182;7.890;2023-03-31T07:55:59;8.90;99.90
21648;DHT22;10985;54.182;7.890;2023-03-31T07:58:25;8.90;99.90
21648;DHT22;10985;54.182;7.890;2023-03-31T08:00:51;8.80;99.90
21648;DHT22;10985;54.182;7.890;2023-03-31T08:03:16;8.80;99.90
21648;DHT22;10985;54.182;7.890;2023-03-31T08:05:42;8.80;99.90
21648;DHT22;10985;54.182;7.890;2023-03-31T08:08:07;8.80;99.90
21648;DHT22;10985;54.182;7.890;2023-03-31T08:10:33;8.80;99.90
21648;DHT22;10985;54.182;7.890;2023-03-31T08:12:58;8.80;99.90
21648;DHT22;10985;54.182;7.890;2023-03-31T08:15:24;8.80;99.90
21648;DHT22;10985;54.182;7.890;2023-03-31T08:17:50;8.80;99.90
21648;DHT22;10985;54.182;7.890;2023-03-31T08:20:16;8.80;99.90
21648;DHT22;10985;54.182;7.890;2023-03-31T08:22:41;8.80;99.90
21648;DHT22;10985;54.182;7.890;2023-03-31T08:25:07;8.80;99.90
21648;DHT22;10985;54.182;7.890;2023-03-31T08:27:34;8.80;99.90
21648;DHT22;10985;54.182;7.890;2023-03-31T08:30:01;8.80;99.90
21648;DHT22;10985;54.182;7.890;2023-03-31T08:32:30;8.80;99.90
21648;DHT22;10985;54.182;7.890;2023-03-31T08:34:55;8.80;99.90
21648;DHT22;10985;54.182;7.890;2023-03-31T08:37:21;8.90;99.90
21648;DHT22;10985;54.182;7.890;2023-03-31T08:39:46;8.90;99.90
21648;DHT22;10985;54.182;7.890;2023-03-31T08:42:16;9.00;99.90
21648;DHT22;10985;54.182;7.890;2023-03-31T08:45:02;9.00;99.90
21648;DHT22;10985;54.182;7.890;2023-03-31T08:47:30;9.00;99.90
21648;DHT22;10985;54.182;7.890;2023-03-31T08:50:14;9.00;99.90
21648;DHT22;10985;54.182;7.890;2023-03-31T08:53:12;9.10;99.90
21648;DHT22;10985;54.182;7.890;2023-03-31T08:55:44;9.20;99.90
21648;DHT22;10985;54.182;7.890;2023-03-31T08:58:43;9.20;99.90
21648;DHT22;10985;54.182;7.890;2023-03-31T09:01:43;9.20;99.90
21648;DHT22;10985;54.182;7.890;2023-03-31T09:06:55;9.30;99.90
21648;DHT22;10985;54.182;7.890;2023-03-31T09:09:47;9.30;99.90
21648;DHT22;10985;54.182;7.890;2023-03-31T09:12:35;9.40;99.90
21648;DHT22;10985;54.182;7.890;2023-03-31T09:15:25;9.50;99.90
21648;DHT22;10985;54.182;7.890;2023-03-31T09:17:51;9.60;99.90
21648;DHT22;10985;54.182;7.890;2023-03-31T09:20:24;9.70;99.90
21648;DHT22;10985;54.182;7.890;2023-03-31T09:22:59;9.70;99.90
21648;DHT22;10985;54.182;7.890;2023-03-31T09:25:30;9.80;99.90
21648;DHT22;10985;54.182;7.890;2023-03-31T09:27:58;9.90;99.90
21648;DHT22;10985;54.182;7.890;2023-03-31T09:30:29;10.00;99.90
21648;DHT22;10985;54.182;7.890;2023-03-31T09:36:16;10.20;99.90
21648;DHT22;10985;54.182;7.890;2023-03-31T09:38:43;10.30;99.90
21648;DHT22;10985;54.182;7.890;2023-03-31T09:41:10;10.30;99.90
21648;DHT22;10985;54.182;7.890;2023-03-31T09:43:39;10.40;99.90
21648;DHT22;10985;54.182;7.890;2023-03-31T09:46:23;10.40;99.90
21648;DHT22;10985;54.182;7.890;2023-03-31T09:49:10;10.50;99.90
21648;DHT22;10985;54.182;7.890;2023-03-31T09:51:36;10.50;99.90
21648;DHT22;10985;54.182;7.890;2023-03-31T09:54:26;10.40;99.90
21648;DHT22;10985;54.182;7.890;2023-03-31T09:56:54;10.40;99.90
21648;DHT22;10985;54.182;7.890;2023-03-31T09:59:22;10.40;99.90
21648;DHT22;10985;54.182;7.890;2023-03-31T10:01:52;10.40;99.90
21648;DHT22;10985;54.182;7.890;2023-03-31T10:04:26;10.40;99.90
21648;DHT22;10985;54.182;7.890;2023-03-31T10:06:54;10.40;99.90
21648;DHT22;10985;54.182;7.890;2023-03-31T10:09:24;10.40;99.90
21648;DHT22;10985;54.182;7.890;2023-03-31T10:12:36;10.30;99.90
21648;DHT22;10985;54.182;7.890;2023-03-31T10:14:47;10.40;99.90
21648;DHT22;10985;54.182;7.890;2023-03-31T10:17:24;10.40;99.90
21648;DHT22;10985;54.182;7.890;2023-03-31T10:19:53;10.40;99.90
21648;DHT22;10985;54.182;7.890;2023-03-31T10:24:47;10.50;99.90
21648;DHT22;10985;54.182;7.890;2023-03-31T10:27:28;10.60;99.90
21648;DHT22;10985;54.182;7.890;2023-03-31T10:29:55;10.60;99.90
21648;DHT22;10985;54.182;7.890;2023-03-31T10:34:55;10.70;99.90
21648;DHT22;10985;54.182;7.890;2023-03-31T10:37:24;10.70;99.90
21648;DHT22;10985;54.182;7.890;2023-03-31T10:40:02;10.70;99.90
21648;DHT22;10985;54.182;7.890;2023-03-31T10:42:30;10.70;99.90
21648;DHT22;10985;54.182;7.890;2023-03-31T10:47:49;10.80;99.90
21648;DHT22;10985;54.182;7.890;2023-03-31T10:50:16;10.80;99.90
21648;DHT22;10985;54.182;7.890;2023-03-31T10:52:44;10.70;99.90
21648;DHT22;10985;54.182;7.890;2023-03-31T10:55:22;10.70;99.90
21648;DHT22;10985;54.182;7.890;2023-03-31T11:06:03;10.70;99.90
21648;DHT22;10985;54.182;7.890;2023-03-31T11:08:56;10.60;99.90
21648;DHT22;10985;54.182;7.890;2023-03-31T11:15:00;10.60;99.90
21648;DHT22;10985;54.182;7.890;2023-03-31T11:17:53;10.60;99.90
21648;DHT22;10985;54.182;7.890;2023-03-31T11:20:27;10.60;99.90
21648;DHT22;10985;54.182;7.890;2023-03-31T11:26:09;10.70;99.90
21648;DHT22;10985;54.182;7.890;2023-03-31T11:28:57;10.70;99.90
21648;DHT22;10985;54.182;7.890;2023-03-31T11:31:51;10.70;99.90
21648;DHT22;10985;54.182;7.890;2023-03-31T11:40:13;10.70;99.90
21648;DHT22;10985;54.182;7.890;2023-03-31T11:42:48;10.70;99.90
21648;DHT22;10985;54.182;7.890;2023-03-31T11:45:20;10.80;99.90
21648;DHT22;10985;54.182;7.890;2023-03-31T11:47:51;10.80;99.90
21648;DHT22;10985;54.182;7.890;2023-03-31T11:50:21;10.80;99.90
21648;DHT22;10985;54.182;7.890;2023-03-31T11:53:04;10.80;99.90
21648;DHT22;10985;54.182;7.890;2023-03-31T11:55:31;10.90;99.90
21648;DHT22;10985;54.182;7.890;2023-03-31T11:58:01;10.90;99.90
21648;DHT22;10985;54.182;7.890;2023-03-31T12:00:31;10.90;99.90
21648;DHT22;10985;54.182;7.890;2023-03-31T12:06:00;11.00;99.90
21648;DHT22;10985;54.182;7.890;2023-03-31T12:11:13;11.00;99.90
21648;DHT22;10985;54.182;7.890;2023-03-31T12:13:51;11.10;99.90
21648;DHT22;10985;54.182;7.890;2023-03-31T12:19:38;11.10;99.90
21648;DHT22;10985;54.182;7.890;2023-03-31T12:22:10;11.10;99.90
21648;DHT22;10985;54.182;7.890;2023-03-31T12:24:38;11.10;99.90
21648;DHT22;10985;54.182;7.890;2023-03-31T12:27:24;11.10;99.90
21648;DHT22;10985;54.182;7.890;2023-03-31T12:29:58;11.10;99.90
21648;DHT22;10985;54.182;7.890;2023-03-31T12:32:29;11.20;99.90
21648;DHT22;10985;54.182;7.890;2023-03-31T12:35:20;11.10;99.90
21648;DHT22;10985;54.182;7.890;2023-03-31T12:38:16;11.20;99.90
21648;DHT22;10985;54.182;7.890;2023-03-31T12:44:03;11.20;99.90
21648;DHT22;10985;54.182;7.890;2023-03-31T12:46:53;11.20;99.90
21648;DHT22;10985;54.182;7.890;2023-03-31T12:52:11;11.30;99.90
21648;DHT22;10985;54.182;7.890;2023-03-31T12:57:40;11.30;99.90
21648;DHT22;10985;54.182;7.890;2023-03-31T13:02:45;11.30;99.90
21648;DHT22;10985;54.182;7.890;2023-03-31T13:08:06;11.30;99.90
21648;DHT22;10985;54.182;7.890;2023-03-31T13:10:33;11.30;99.90
21648;DHT22;10985;54.182;7.890;2023-03-31T13:13:15;11.30;99.90
21648;DHT22;10985;54.182;7.890;2023-03-31T13:15:54;11.30;99.90
21648;DHT22;10985;54.182;7.890;2023-03-31T13:18:20;11.30;99.90
21648;DHT22;10985;54.182;7.890;2023-03-31T13:21:03;11.40;99.90
21648;DHT22;10985;54.182;7.890;2023-03-31T13:23:33;11.40;99.90
21648;DHT22;10985;54.182;7.890;2023-03-31T13:25:59;11.40;99.90
21648;DHT22;10985;54.182;7.890;2023-03-31T13:28:38;11.40;99.90
21648;DHT22;10985;54.182;7.890;2023-03-31T13:31:11;11.40;99.90
21648;DHT22;10985;54.182;7.890;2023-03-31T13:33:50;11.50;99.90
21648;DHT22;10985;54.182;7.890;2023-03-31T13:39:12;11.40;99.90
21648;DHT22;10985;54.182;7.890;2023-03-31T13:50:33;11.40;99.90
21648;DHT22;10985;54.182;7.890;2023-03-31T13:59:04;11.40;99.90
21648;DHT22;10985;54.182;7.890;2023-03-31T14:07:19;11.50;99.90
21648;DHT22;10985;54.182;7.890;2023-03-31T14:09:46;11.50;99.90
21648;DHT22;10985;54.182;7.890;2023-03-31T14:12:33;11.50;99.90
21648;DHT22;10985;54.182;7.890;2023-03-31T14:14:59;11.50;99.90
21648;DHT22;10985;54.182;7.890;2023-03-31T14:17:28;11.50;99.90
21648;DHT22;10985;54.182;7.890;2023-03-31T14:25:40;11.50;99.90
21648;DHT22;10985;54.182;7.890;2023-03-31T14:31:25;11.40;99.90
21648;DHT22;10985;54.182;7.890;2023-03-31T14:34:04;11.30;99.90
21648;DHT22;10985;54.182;7.890;2023-03-31T14:36:40;11.30;99.90
21648;DHT22;10985;54.182;7.890;2023-03-31T14:39:09;11.30;99.90
21648;DHT22;10985;54.182;7.890;2023-03-31T14:41:36;11.20;99.90
21648;DHT22;10985;54.182;7.890;2023-03-31T14:44:04;11.30;99.90
21648;DHT22;10985;54.182;7.890;2023-03-31T14:46:32;11.20;99.90
21648;DHT22;10985;54.182;7.890;2023-03-31T14:49:24;11.20;99.90
21648;DHT22;10985;54.182;7.890;2023-03-31T14:51:52;11.20;99.90
21648;DHT22;10985;54.182;7.890;2023-03-31T14:54:19;11.10;99.90
21648;DHT22;10985;54.182;7.890;2023-03-31T14:56:51;11.10;99.90
21648;DHT22;10985;54.182;7.890;2023-03-31T14:59:23;11.10;99.90
21648;DHT22;10985;54.182;7.890;2023-03-31T15:01:50;11.10;99.90
21648;DHT22;10985;54.182;7.890;2023-03-31T15:04:20;11.10;99.90
21648;DHT22;10985;54.182;7.890;2023-03-31T15:06:47;11.20;99.90
21648;DHT22;10985;54.182;7.890;2023-03-31T15:09:21;11.20;99.90
21648;DHT22;10985;54.182;7.890;2023-03-31T15:11:54;11.20;99.90
21648;DHT22;10985;54.182;7.890;2023-03-31T15:14:21;11.30;99.90
21648;DHT22;10985;54.182;7.890;2023-03-31T15:16:49;11.30;99.90
21648;DHT22;10985;54.182;7.890;2023-03-31T15:19:30;11.30;99.90
21648;DHT22;10985;54.182;7.890;2023-03-31T15:22:04;11.30;99.90
21648;DHT22;10985;54.182;7.890;2023-03-31T15:24:32;11.30;99.90
21648;DHT22;10985;54.182;7.890;2023-03-31T15:29:50;11.40;99.90
21648;DHT22;10985;54.182;7.890;2023-03-31T15:32:28;11.30;99.90
21648;DHT22;10985;54.182;7.890;2023-03-31T15:34:54;11.30;99.90
21648;DHT22;10985;54.182;7.890;2023-03-31T15:37:23;11.30;99.90
21648;DHT22;10985;54.182;7.890;2023-03-31T15:39:54;11.30;99.90
21648;DHT22;10985;54.182;7.890;2023-03-31T15:42:21;11.30;99.90
21648;DHT22;10985;54.182;7.890;2023-03-31T15:47:19;11.20;99.90
21648;DHT22;10985;54.182;7.890;2023-03-31T15:49:57;11.20;99.90
21648;DHT22;10985;54.182;7.890;2023-03-31T15:52:35;11.20;99.90
21648;DHT22;10985;54.182;7.890;2023-03-31T15:55:29;11.20;99.90
21648;DHT22;10985;54.182;7.890;2023-03-31T15:57:58;11.20;99.90
21648;DHT22;10985;54.182;7.890;2023-03-31T16:03:00;11.10;99.90
21648;DHT22;10985;54.182;7.890;2023-03-31T16:05:39;11.10;99.90
21648;DHT22;10985;54.182;7.890;2023-03-31T16:08:10;11.00;99.90
21648;DHT22;10985;54.182;7.890;2023-03-31T16:10:38;10.90;99.90
21648;DHT22;10985;54.182;7.890;2023-03-31T16:13:06;10.90;99.90
21648;DHT22;10985;54.182;7.890;2023-03-31T16:15:45;10.90;99.90
21648;DHT22;10985;54.182;7.890;2023-03-31T16:18:16;10.80;99.90
21648;DHT22;10985;54.182;7.890;2023-03-31T16:20:44;10.80;99.90
21648;DHT22;10985;54.182;7.890;2023-03-31T16:23:20;10.70;99.90
21648;DHT22;10985;54.182;7.890;2023-03-31T16:25:47;10.70;99.90
21648;DHT22;10985;54.182;7.890;2023-03-31T16:28:15;10.60;99.90
21648;DHT22;10985;54.182;7.890;2023-03-31T16:30:44;10.60;99.90
21648;DHT22;10985;54.182;7.890;2023-03-31T16:33:15;10.50;99.90
21648;DHT22;10985;54.182;7.890;2023-03-31T16:35:49;10.60;99.90
21648;DHT22;10985;54.182;7.890;2023-03-31T16:38:21;10.50;99.90
21648;DHT22;10985;54.182;7.890;2023-03-31T16:40:49;10.50;99.90
21648;DHT22;10985;54.182;7.890;2023-03-31T16:43:29;10.60;99.90
21648;DHT22;10985;54.182;7.890;2023-03-31T16:45:58;10.60;99.90
21648;DHT22;10985;54.182;7.890;2023-03-31T16:48:26;10.50;99.90
21648;DHT22;10985;54.182;7.890;2023-03-31T16:50:54;10.50;99.90
21648;DHT22;10985;54.182;7.890;2023-03-31T16:53:22;10.50;99.90
21648;DHT22;10985;54.182;7.890;2023-03-31T16:58:15;10.50;99.90
21648;DHT22;10985;54.182;7.890;2023-03-31T17:00:42;10.50;99.90
21648;DHT22;10985;54.182;7.890;2023-03-31T17:03:10;10.50;99.90
21648;DHT22;10985;54.182;7.890;2023-03-31T17:05:40;10.50;99.90
21648;DHT22;10985;54.182;7.890;2023-03-31T17:08:07;10.40;99.90
21648;DHT22;10985;54.182;7.890;2023-03-31T17:10:33;10.40;99.90
21648;DHT22;10985;54.182;7.890;2023-03-31T17:12:58;10.30;99.90
21648;DHT22;10985;54.182;7.890;2023-03-31T17:15:24;10.30;99.90
21648;DHT22;10985;54.182;7.890;2023-03-31T17:17:50;10.20;99.90
21648;DHT22;10985;54.182;7.890;2023-03-31T17:20:16;10.20;99.90
21648;DHT22;10985;54.182;7.890;2023-03-31T17:22:42;10.20;99.90
21648;DHT22;10985;54.182;7.890;2023-03-31T17:25:08;10.20;99.90
21648;DHT22;10985;54.182;7.890;2023-03-31T17:27:34;10.20;99.90
21648;DHT22;10985;54.182;7.890;2023-03-31T17:30:00;10.20;99.90
21648;DHT22;10985;54.182;7.890;2023-03-31T17:32:25;10.10;99.90
21648;DHT22;10985;54.182;7.890;2023-03-31T17:34:51;10.10;99.90
21648;DHT22;10985;54.182;7.890;2023-03-31T17:37:18;10.10;99.90
21648;DHT22;10985;54.182;7.890;2023-03-31T17:39:43;10.00;99.90
21648;DHT22;10985;54.182;7.890;2023-03-31T17:42:10;10.00;99.90
21648;DHT22;10985;54.182;7.890;2023-03-31T17:44:37;10.00;99.90
21648;DHT22;10985;54.182;7.890;2023-03-31T17:47:03;9.90;99.90
21648;DHT22;10985;54.182;7.890;2023-03-31T17:49:28;9.90;99.90
21648;DHT22;10985;54.182;7.890;2023-03-31T17:51:54;9.80;99.90
21648;DHT22;10985;54.182;7.890;2023-03-31T17:54:19;9.80;99.90
21648;DHT22;10985;54.182;7.890;2023-03-31T17:56:45;9.80;99.90
21648;DHT22;10985;54.182;7.890;2023-03-31T17:59:14;9.70;99.90
21648;DHT22;10985;54.182;7.890;2023-03-31T18:01:40;9.70;99.90
21648;DHT22;10985;54.182;7.890;2023-03-31T18:04:06;9.70;99.90
21648;DHT22;10985;54.182;7.890;2023-03-31T18:06:32;9.70;99.90
21648;DHT22;10985;54.182;7.890;2023-03-31T18:08:58;9.60;99.90
21648;DHT22;10985;54.182;7.890;2023-03-31T18:11:23;9.70;99.90